Keyesport, Illinois
Current Conditions -  °F | °C
As of 11:15 AM on Sunday 21 Dec 2014 (Local Time) from KSLO Reporting Station
Broken Clouds Broken Clouds  
Wind Chill: 38°   Ceiling: 2900
Heat Index: 41°   Visibility: 10mi
Dew Point: 30°   Wind: 6mph
Humidity: 63%   Direction: 110°ESE
Pressure: 30.21"   Gusts: NA
Location:  38.74°N, 89.28°W
Report Text: KSLO 211715Z AUTO 11005KT 10SM BKN029 05/M01 A3021 RMK AO2 T00521013
Loading
Personal Weather Stations






























Interactive Weather Map New forecast layout! Learn more

10-Day Weather Forecast

Advertisements
Track Severe Weather on mobile